createdAt,value
2018-11-04T00:00:57.285Z,90.80
2018-11-04T00:02:00.871Z,90.80
2018-11-04T00:03:04.455Z,90.70
2018-11-04T00:04:08.043Z,90.60
2018-11-04T00:05:11.704Z,90.70
2018-11-04T00:06:15.254Z,90.60
2018-11-04T00:07:18.832Z,90.60
2018-11-04T00:08:22.403Z,90.80
2018-11-04T00:09:25.995Z,90.60
2018-11-04T00:10:29.615Z,90.50
2018-11-04T00:11:33.227Z,90.60
2018-11-04T00:12:37.095Z,90.50
2018-11-04T00:13:40.735Z,90.40
2018-11-04T00:14:44.276Z,90.30
2018-11-04T00:15:47.887Z,90.20
2018-11-04T00:16:51.485Z,90.00
2018-11-04T00:17:55.095Z,90.10
2018-11-04T00:18:58.673Z,89.90
2018-11-04T00:20:02.246Z,89.70
2018-11-04T00:21:05.850Z,89.20
2018-11-04T00:22:09.439Z,89.10
2018-11-04T00:23:13.050Z,89.10
2018-11-04T00:24:16.645Z,89.30
2018-11-04T00:25:20.252Z,89.50
2018-11-04T00:26:23.900Z,89.40
2018-11-04T00:27:27.486Z,89.20
2018-11-04T00:28:31.077Z,89.20
2018-11-04T00:29:34.711Z,89.50
2018-11-04T00:30:38.282Z,89.60
2018-11-04T00:31:41.872Z,89.60
2018-11-04T00:32:45.425Z,89.70
2018-11-04T00:33:48.999Z,89.80
2018-11-04T00:34:52.581Z,90.20
2018-11-04T00:35:57.009Z,89.60
2018-11-04T00:37:00.579Z,89.70
2018-11-04T00:38:05.844Z,90.20
2018-11-04T00:39:09.815Z,89.90
2018-11-04T00:40:13.379Z,90.30
2018-11-04T00:41:16.975Z,89.90
2018-11-04T00:42:20.591Z,89.70
2018-11-04T00:43:24.172Z,89.70
2018-11-04T00:44:27.824Z,89.70
2018-11-04T00:45:31.419Z,89.70
2018-11-04T00:46:35.000Z,89.80
2018-11-04T00:47:39.147Z,89.60
2018-11-04T00:48:42.745Z,89.90
2018-11-04T00:49:46.313Z,90.00
2018-11-04T00:50:49.947Z,90.10
2018-11-04T00:51:53.531Z,90.10
2018-11-04T00:52:57.107Z,90.20
2018-11-04T00:54:00.703Z,90.20
2018-11-04T00:55:04.537Z,90.30
2018-11-04T00:56:08.239Z,90.40
2018-11-04T00:57:11.804Z,90.40
2018-11-04T00:58:15.491Z,90.50
2018-11-04T00:59:19.079Z,90.50
2018-11-04T01:00:23.147Z,90.50
2018-11-04T01:01:26.760Z,90.50
2018-11-04T01:02:30.339Z,90.50
2018-11-04T01:03:33.945Z,90.50
2018-11-04T01:04:37.523Z,90.50
2018-11-04T01:05:41.124Z,90.50
2018-11-04T01:06:44.767Z,90.50
2018-11-04T01:07:48.450Z,90.70
2018-11-04T01:08:52.005Z,90.70
2018-11-04T01:09:55.627Z,90.70
2018-11-04T01:10:59.222Z,90.70
2018-11-04T01:12:02.837Z,90.60
2018-11-04T01:13:06.436Z,90.60
2018-11-04T01:14:10.029Z,90.60
2018-11-04T01:15:14.459Z,90.70
2018-11-04T01:16:18.035Z,90.80
2018-11-04T01:17:21.631Z,90.90
2018-11-04T01:18:25.239Z,90.70
2018-11-04T01:19:28.830Z,90.70
2018-11-04T01:20:32.411Z,90.80
2018-11-04T01:21:35.983Z,90.70
2018-11-04T01:22:39.609Z,90.70
2018-11-04T01:23:43.196Z,90.70
2018-11-04T01:24:46.960Z,90.70
2018-11-04T01:25:50.549Z,90.80
2018-11-04T01:26:54.203Z,90.80
2018-11-04T01:27:57.772Z,90.80
2018-11-04T01:29:01.364Z,90.80
2018-11-04T01:30:06.966Z,90.70
2018-11-04T01:31:10.499Z,90.80
2018-11-04T01:32:14.247Z,90.80
2018-11-04T01:33:17.827Z,90.80
2018-11-04T01:34:21.407Z,90.80
2018-11-04T01:35:25.096Z,90.80
2018-11-04T01:36:28.629Z,90.80
2018-11-04T01:37:32.239Z,90.80
2018-11-04T01:38:35.818Z,90.90
2018-11-04T01:39:39.394Z,90.80
2018-11-04T01:40:42.994Z,90.80
2018-11-04T01:41:46.563Z,91.00
2018-11-04T01:42:50.147Z,90.90
2018-11-04T01:43:53.735Z,90.90
2018-11-04T01:44:57.320Z,90.90
2018-11-04T01:46:00.903Z,90.90
2018-11-04T01:47:04.752Z,91.00
2018-11-04T01:48:08.341Z,91.00
2018-11-04T01:49:11.931Z,91.00
2018-11-04T01:50:15.545Z,91.00
2018-11-04T01:51:19.110Z,91.10
2018-11-04T01:52:22.912Z,91.00
2018-11-04T01:53:26.495Z,91.00
2018-11-04T01:54:30.111Z,91.00
2018-11-04T01:55:33.660Z,91.00
2018-11-04T01:56:37.259Z,91.00
2018-11-04T01:57:40.883Z,91.00
2018-11-04T01:58:44.452Z,91.10
2018-11-04T01:59:48.035Z,91.10
2018-11-04T02:00:51.622Z,91.10
2018-11-04T02:01:55.198Z,91.20
2018-11-04T02:02:58.787Z,91.20
2018-11-04T02:04:02.366Z,91.20
2018-11-04T02:05:06.440Z,91.10
2018-11-04T02:06:10.118Z,91.10
2018-11-04T02:07:13.708Z,91.10
2018-11-04T02:08:17.259Z,91.10
2018-11-04T02:09:20.835Z,91.10
2018-11-04T02:10:24.411Z,91.20
2018-11-04T02:11:27.998Z,91.20
2018-11-04T02:12:31.583Z,91.20
2018-11-04T02:13:35.251Z,91.20
2018-11-04T02:14:38.792Z,91.30
2018-11-04T02:15:42.373Z,91.30
2018-11-04T02:16:45.955Z,91.30
2018-11-04T02:17:49.534Z,91.30
2018-11-04T02:18:53.123Z,91.30
2018-11-04T02:19:56.794Z,91.30
2018-11-04T02:21:00.332Z,91.30
2018-11-04T02:22:03.912Z,91.30
2018-11-04T02:23:07.503Z,91.30
2018-11-04T02:24:11.106Z,91.30
2018-11-04T02:25:14.955Z,91.30
2018-11-04T02:26:18.542Z,91.30
2018-11-04T02:27:22.134Z,91.70
2018-11-04T02:28:25.823Z,91.40
2018-11-04T02:29:29.383Z,91.40
2018-11-04T02:30:32.981Z,91.40
2018-11-04T02:31:36.580Z,91.60
2018-11-04T02:32:40.220Z,91.40
2018-11-04T02:33:44.021Z,91.40
2018-11-04T02:34:47.622Z,91.40
2018-11-04T02:35:51.264Z,91.40
2018-11-04T02:36:54.816Z,91.40
2018-11-04T02:37:58.402Z,91.40
2018-11-04T02:39:01.987Z,91.50
2018-11-04T02:40:05.647Z,91.50
2018-11-04T02:41:09.219Z,91.40
2018-11-04T02:42:12.798Z,91.40
2018-11-04T02:43:16.498Z,91.40
2018-11-04T02:44:20.039Z,91.40
2018-11-04T02:45:23.619Z,91.50
2018-11-04T02:46:27.269Z,91.50
2018-11-04T02:47:30.835Z,91.50
2018-11-04T02:48:34.861Z,91.40
2018-11-04T02:49:38.447Z,91.40
2018-11-04T02:50:42.023Z,91.50
2018-11-04T02:51:45.629Z,91.50
2018-11-04T02:52:49.190Z,91.50
2018-11-04T02:53:52.776Z,91.50
2018-11-04T02:54:56.360Z,91.50
2018-11-04T02:55:59.968Z,91.60
2018-11-04T02:57:03.574Z,91.50
2018-11-04T02:58:07.176Z,91.50
2018-11-04T02:59:10.756Z,91.50
2018-11-04T03:00:15.010Z,91.50
2018-11-04T03:01:18.600Z,91.50
2018-11-04T03:02:22.189Z,91.60
2018-11-04T03:03:25.816Z,91.60
2018-11-04T03:04:29.411Z,91.90
2018-11-04T03:05:32.981Z,91.60
2018-11-04T03:06:36.560Z,91.60
2018-11-04T03:07:40.972Z,91.60
2018-11-04T03:08:44.612Z,91.60
2018-11-04T03:09:48.156Z,91.60
2018-11-04T03:10:51.794Z,91.60
2018-11-04T03:11:55.379Z,91.90
2018-11-04T03:12:58.971Z,91.70
2018-11-04T03:14:02.575Z,91.70
2018-11-04T03:15:06.342Z,91.70
2018-11-04T03:16:09.923Z,91.70
2018-11-04T03:17:13.499Z,91.70
2018-11-04T03:18:17.132Z,92.10
2018-11-04T03:19:20.688Z,91.90
2018-11-04T03:20:24.263Z,92.00
2018-11-04T03:21:27.861Z,92.10
2018-11-04T03:22:31.491Z,92.20
2018-11-04T03:23:35.190Z,92.30
2018-11-04T03:24:38.813Z,92.40
2018-11-04T03:25:42.364Z,92.50
2018-11-04T03:26:45.956Z,92.60
2018-11-04T03:27:49.571Z,92.50
2018-11-04T03:28:53.160Z,92.50
2018-11-04T03:29:56.747Z,92.50
2018-11-04T03:31:00.347Z,92.40
2018-11-04T03:32:03.923Z,92.40
2018-11-04T03:33:08.363Z,92.40
2018-11-04T03:34:12.060Z,92.20
2018-11-04T03:35:15.651Z,92.30
2018-11-04T03:36:19.292Z,92.20
2018-11-04T03:37:22.882Z,92.20
2018-11-04T03:38:26.494Z,92.30
2018-11-04T03:39:30.031Z,92.20
2018-11-04T03:40:33.624Z,92.30
2018-11-04T03:41:37.207Z,92.30
2018-11-04T03:42:41.097Z,92.20
2018-11-04T03:43:44.732Z,92.10
2018-11-04T03:44:48.431Z,92.10
2018-11-04T03:45:52.015Z,92.10
2018-11-04T03:46:55.598Z,92.10
2018-11-04T03:47:59.187Z,92.10
2018-11-04T03:49:02.794Z,92.00
2018-11-04T03:50:07.807Z,91.90
2018-11-04T03:51:11.419Z,91.90
2018-11-04T03:52:15.011Z,91.80
2018-11-04T03:53:18.630Z,91.70
2018-11-04T03:54:22.203Z,91.60
2018-11-04T03:55:25.787Z,91.50
2018-11-04T03:56:29.647Z,91.50
2018-11-04T03:57:33.250Z,91.50
2018-11-04T03:58:36.824Z,91.40
2018-11-04T03:59:40.423Z,91.30
2018-11-04T04:00:44.008Z,91.30
2018-11-04T04:01:47.595Z,91.30
2018-11-04T04:02:51.197Z,91.30
2018-11-04T04:03:54.823Z,91.20
2018-11-04T04:04:58.636Z,91.20
2018-11-04T04:06:02.219Z,91.20
2018-11-04T04:07:05.804Z,91.20
2018-11-04T04:08:09.404Z,91.20
2018-11-04T04:09:12.991Z,91.30
2018-11-04T04:10:16.579Z,91.30
2018-11-04T04:11:20.234Z,91.30
2018-11-04T04:12:23.822Z,91.30
2018-11-04T04:13:27.419Z,91.30
2018-11-04T04:14:31.010Z,91.30
2018-11-04T04:15:34.605Z,91.30
2018-11-04T04:16:38.180Z,91.30
2018-11-04T04:17:41.835Z,91.30
2018-11-04T04:18:45.473Z,91.30
2018-11-04T04:19:49.057Z,91.30
2018-11-04T04:20:57.358Z,91.30
2018-11-04T04:22:01.092Z,91.30
2018-11-04T04:23:04.830Z,91.30
2018-11-04T04:24:08.435Z,91.60
2018-11-04T04:25:12.145Z,91.20
2018-11-04T04:26:15.712Z,91.20
2018-11-04T04:27:19.298Z,91.20
2018-11-04T04:28:22.915Z,91.20
2018-11-04T04:29:26.496Z,91.20
2018-11-04T04:30:30.082Z,91.20
2018-11-04T04:31:33.773Z,91.30
2018-11-04T04:32:37.319Z,91.20
2018-11-04T04:33:41.055Z,91.30
2018-11-04T04:34:44.750Z,91.20
2018-11-04T04:35:48.308Z,91.20
2018-11-04T04:36:51.911Z,91.30
2018-11-04T04:37:55.499Z,91.30
2018-11-04T04:38:59.088Z,91.20
2018-11-04T04:40:02.804Z,91.20
2018-11-04T04:41:06.783Z,91.20
2018-11-04T04:42:10.379Z,91.20
2018-11-04T04:43:13.982Z,91.20
2018-11-04T04:44:17.575Z,91.20
2018-11-04T04:45:21.151Z,91.20
2018-11-04T04:46:24.757Z,91.20
2018-11-04T04:47:29.307Z,91.10
2018-11-04T04:48:32.904Z,91.10
2018-11-04T04:49:36.646Z,91.10
2018-11-04T04:50:40.255Z,91.10
2018-11-04T04:51:43.852Z,91.00
2018-11-04T04:52:47.475Z,91.00
2018-11-04T04:53:51.055Z,91.00
2018-11-04T04:54:54.645Z,91.10
2018-11-04T04:55:58.240Z,91.10
2018-11-04T04:57:01.823Z,91.10
2018-11-04T04:58:05.426Z,91.10
2018-11-04T04:59:09.056Z,91.10
2018-11-04T05:00:12.762Z,91.10
2018-11-04T05:01:16.320Z,91.20
2018-11-04T05:02:19.928Z,91.20
2018-11-04T05:03:23.764Z,91.20
2018-11-04T05:04:27.358Z,91.20
2018-11-04T05:05:31.030Z,91.20
2018-11-04T05:06:34.614Z,91.20
2018-11-04T05:07:38.303Z,91.20
2018-11-04T05:08:41.859Z,91.30
2018-11-04T05:09:45.452Z,91.30
2018-11-04T05:10:49.320Z,91.30
2018-11-04T05:11:52.915Z,91.40
2018-11-04T05:12:56.504Z,91.40
2018-11-04T05:14:00.096Z,91.40
2018-11-04T05:15:03.691Z,91.50
2018-11-04T05:16:07.276Z,91.50
2018-11-04T05:17:10.861Z,91.50
2018-11-04T05:18:14.463Z,91.60
2018-11-04T05:19:18.056Z,91.60
2018-11-04T05:20:21.631Z,91.70
2018-11-04T05:21:25.220Z,91.70
2018-11-04T05:22:28.827Z,91.70
2018-11-04T05:23:32.465Z,91.70
2018-11-04T05:24:36.059Z,91.70
2018-11-04T05:25:39.655Z,91.70
2018-11-04T05:26:43.239Z,91.70
2018-11-04T05:27:46.824Z,91.80
2018-11-04T05:28:50.403Z,91.80
2018-11-04T05:29:54.008Z,91.80
2018-11-04T05:30:57.599Z,91.80
2018-11-04T05:32:01.180Z,91.90
2018-11-04T05:33:05.283Z,91.90
2018-11-04T05:34:08.866Z,92.00
2018-11-04T05:35:12.475Z,92.10
2018-11-04T05:36:16.056Z,92.10
2018-11-04T05:37:19.647Z,92.10
2018-11-04T05:38:23.342Z,92.20
2018-11-04T05:39:26.868Z,92.20
2018-11-04T05:40:30.467Z,92.20
2018-11-04T05:41:34.043Z,92.20
2018-11-04T05:42:37.622Z,92.30
2018-11-04T05:43:41.203Z,92.40
2018-11-04T05:44:44.814Z,92.40
2018-11-04T05:45:48.407Z,92.40
2018-11-04T05:46:51.999Z,92.40
2018-11-04T05:47:55.618Z,92.50
2018-11-04T05:48:59.222Z,92.50
2018-11-04T05:50:02.807Z,92.60
2018-11-04T05:51:06.398Z,92.50
2018-11-04T05:52:09.991Z,92.50
2018-11-04T05:53:13.611Z,92.50
2018-11-04T05:54:17.155Z,92.50
2018-11-04T05:55:20.739Z,92.50
2018-11-04T05:56:24.330Z,92.50
2018-11-04T05:57:27.916Z,92.50
2018-11-04T05:58:31.507Z,92.50
2018-11-04T05:59:35.195Z,92.50
2018-11-04T06:00:38.846Z,92.50
2018-11-04T06:01:42.411Z,92.50
2018-11-04T06:02:46.018Z,92.50
2018-11-04T06:03:49.618Z,92.50
2018-11-04T06:04:53.199Z,92.50
2018-11-04T06:05:56.843Z,92.50
2018-11-04T06:07:00.635Z,92.50
2018-11-04T06:08:04.286Z,92.50
2018-11-04T06:09:08.736Z,92.50
2018-11-04T06:10:12.350Z,92.50
2018-11-04T06:11:15.962Z,92.50
2018-11-04T06:12:19.670Z,92.50
2018-11-04T06:13:23.220Z,92.50
2018-11-04T06:14:26.818Z,92.60
2018-11-04T06:15:30.403Z,92.70
2018-11-04T06:16:34.002Z,92.80
2018-11-04T06:17:37.603Z,92.80
2018-11-04T06:18:41.214Z,93.00
2018-11-04T06:19:44.783Z,93.00
2018-11-04T06:20:48.387Z,93.20
2018-11-04T06:21:51.976Z,93.20
2018-11-04T06:22:55.559Z,93.20
2018-11-04T06:23:59.198Z,93.30
2018-11-04T06:25:02.792Z,93.30
2018-11-04T06:26:06.449Z,93.30
2018-11-04T06:27:10.004Z,93.30
2018-11-04T06:28:13.632Z,93.30
2018-11-04T06:29:17.215Z,93.30
2018-11-04T06:30:20.799Z,93.20
2018-11-04T06:31:24.423Z,93.20
2018-11-04T06:32:28.016Z,93.20
2018-11-04T06:33:31.607Z,93.10
2018-11-04T06:34:35.251Z,93.10
2018-11-04T06:35:38.808Z,93.20
2018-11-04T06:36:42.462Z,93.10
2018-11-04T06:37:46.049Z,93.10
2018-11-04T06:38:49.876Z,93.10
2018-11-04T06:39:53.459Z,93.00
2018-11-04T06:40:57.142Z,92.90
2018-11-04T06:42:00.691Z,92.90
2018-11-04T06:43:04.288Z,92.80
2018-11-04T06:44:08.344Z,92.70
2018-11-04T06:45:11.939Z,92.50
2018-11-04T06:46:15.622Z,92.40
2018-11-04T06:47:19.231Z,92.40
2018-11-04T06:48:22.803Z,92.40
2018-11-04T06:49:26.384Z,92.30
2018-11-04T06:50:29.966Z,92.10
2018-11-04T06:51:33.564Z,92.00
2018-11-04T06:52:37.165Z,91.80
2018-11-04T06:53:40.766Z,91.80
2018-11-04T06:54:44.384Z,91.70
2018-11-04T06:55:48.100Z,91.70
2018-11-04T06:56:51.797Z,91.60
2018-11-04T06:57:55.387Z,91.50
2018-11-04T06:58:58.927Z,91.40
2018-11-04T07:00:02.571Z,91.20
2018-11-04T07:01:06.099Z,91.00
2018-11-04T07:02:09.700Z,90.80
2018-11-04T07:03:13.284Z,90.60
2018-11-04T07:04:28.339Z,90.60
2018-11-04T07:05:31.925Z,90.50
2018-11-04T07:06:35.580Z,90.30
2018-11-04T07:07:39.158Z,90.30
2018-11-04T07:08:42.739Z,90.00
2018-11-04T07:09:46.326Z,90.00
2018-11-04T07:10:49.903Z,89.60
2018-11-04T07:11:53.547Z,89.50
2018-11-04T07:12:57.139Z,89.50
2018-11-04T07:14:00.753Z,89.50
2018-11-04T07:15:04.688Z,89.30
2018-11-04T07:16:08.282Z,89.00
2018-11-04T07:17:11.848Z,89.00
2018-11-04T07:18:15.531Z,89.10
2018-11-04T07:19:19.116Z,88.90
2018-11-04T07:20:22.695Z,88.60
2018-11-04T07:21:26.283Z,88.60
2018-11-04T07:22:29.867Z,88.20
2018-11-04T07:23:33.547Z,88.30
2018-11-04T07:24:37.123Z,88.30
2018-11-04T07:25:40.762Z,87.80
2018-11-04T07:26:44.282Z,87.10
2018-11-04T07:27:47.907Z,87.50
2018-11-04T07:28:51.511Z,87.40
2018-11-04T07:29:55.118Z,86.70
2018-11-04T07:30:58.776Z,86.90
2018-11-04T07:32:02.444Z,86.60
2018-11-04T07:33:05.942Z,86.80
2018-11-04T07:34:09.525Z,86.90
2018-11-04T07:35:13.119Z,86.90
2018-11-04T07:36:16.708Z,86.70
2018-11-04T07:37:20.315Z,86.60
2018-11-04T07:38:24.008Z,86.60
2018-11-04T07:39:27.560Z,86.80
2018-11-04T07:40:31.149Z,86.80
2018-11-04T07:41:34.723Z,86.70
2018-11-04T07:42:38.931Z,86.20
2018-11-04T07:43:42.534Z,86.20
2018-11-04T07:44:46.111Z,86.30
2018-11-04T07:45:49.703Z,87.10
2018-11-04T07:46:53.319Z,86.50
2018-11-04T07:47:56.950Z,86.50
2018-11-04T07:49:00.628Z,86.50
2018-11-04T07:50:05.759Z,86.50
2018-11-04T07:51:09.343Z,86.50
2018-11-04T07:52:12.930Z,86.70
2018-11-04T07:53:16.516Z,86.60
2018-11-04T07:54:20.103Z,86.80
2018-11-04T07:55:23.706Z,86.30
2018-11-04T07:56:27.279Z,86.80
2018-11-04T07:57:30.867Z,87.00
2018-11-04T07:58:34.471Z,87.40
2018-11-04T07:59:38.064Z,87.30
2018-11-04T08:00:41.666Z,87.70
2018-11-04T08:01:45.265Z,87.70
2018-11-04T08:02:48.942Z,87.50
2018-11-04T08:03:52.534Z,87.10
2018-11-04T08:04:56.075Z,86.70
2018-11-04T08:05:59.746Z,86.80
2018-11-04T08:07:03.347Z,86.10
2018-11-04T08:08:06.946Z,86.30
2018-11-04T08:09:11.037Z,86.10
2018-11-04T08:10:14.929Z,86.20
2018-11-04T08:11:18.515Z,85.40
2018-11-04T08:12:22.101Z,85.00
2018-11-04T08:13:25.735Z,85.00
2018-11-04T08:14:29.357Z,84.70
2018-11-04T08:15:32.908Z,85.40
2018-11-04T08:16:36.502Z,85.60
2018-11-04T08:17:40.482Z,85.30
2018-11-04T08:18:44.055Z,86.00
2018-11-04T08:19:47.631Z,85.90
2018-11-04T08:20:51.247Z,86.20
2018-11-04T08:21:54.836Z,86.00
2018-11-04T08:22:58.490Z,86.00
2018-11-04T08:24:02.048Z,85.70
2018-11-04T08:25:06.080Z,85.60
2018-11-04T08:26:09.626Z,85.90
2018-11-04T08:27:13.310Z,85.90
2018-11-04T08:28:16.891Z,86.00
2018-11-04T08:29:20.497Z,86.10
2018-11-04T08:30:24.072Z,86.00
2018-11-04T08:31:27.650Z,86.30
2018-11-04T08:32:31.274Z,86.10
2018-11-04T08:33:34.882Z,86.10
2018-11-04T08:34:38.497Z,86.00
2018-11-04T08:35:42.044Z,85.70
2018-11-04T08:36:45.638Z,85.50
2018-11-04T08:37:49.225Z,85.80
2018-11-04T08:38:52.841Z,86.00
2018-11-04T08:39:56.481Z,86.50
2018-11-04T08:41:00.012Z,86.50
2018-11-04T08:42:03.733Z,86.60
2018-11-04T08:43:07.319Z,86.30
2018-11-04T08:44:10.892Z,86.50
2018-11-04T08:45:14.473Z,86.30
2018-11-04T08:46:18.056Z,86.20
2018-11-04T08:47:21.647Z,86.20
2018-11-04T08:48:25.251Z,87.20
2018-11-04T08:49:28.862Z,86.40
2018-11-04T08:50:32.438Z,86.80
2018-11-04T08:51:36.027Z,86.50
2018-11-04T08:52:39.858Z,86.00
2018-11-04T08:53:43.371Z,85.80
2018-11-04T08:54:46.955Z,85.50
2018-11-04T08:55:50.534Z,85.80
2018-11-04T08:56:54.303Z,85.90
2018-11-04T08:57:57.847Z,85.60
2018-11-04T08:59:01.432Z,85.50
2018-11-04T09:00:06.338Z,85.60
2018-11-04T09:01:09.868Z,85.70
2018-11-04T09:02:13.624Z,85.60
2018-11-04T09:03:17.227Z,86.10
2018-11-04T09:04:20.975Z,86.30
2018-11-04T09:05:24.518Z,86.30
2018-11-04T09:06:28.100Z,86.20
2018-11-04T09:07:31.711Z,85.90
2018-11-04T09:08:35.334Z,86.10
2018-11-04T09:09:38.936Z,86.20
2018-11-04T09:10:42.531Z,85.90
2018-11-04T09:11:46.127Z,85.90
2018-11-04T09:12:49.699Z,86.30
2018-11-04T09:13:53.304Z,85.10
2018-11-04T09:14:56.913Z,85.10
2018-11-04T09:16:00.567Z,85.30
2018-11-04T09:17:04.159Z,85.80
2018-11-04T09:18:07.995Z,85.80
2018-11-04T09:19:11.583Z,85.40
2018-11-04T09:20:16.424Z,85.20
2018-11-04T09:21:20.018Z,85.30
2018-11-04T09:22:23.701Z,85.80
2018-11-04T09:23:27.234Z,85.80
2018-11-04T09:24:30.826Z,85.30
2018-11-04T09:25:34.364Z,85.50
2018-11-04T09:26:37.968Z,85.30
2018-11-04T09:27:41.543Z,84.90
2018-11-04T09:28:45.131Z,84.90
2018-11-04T09:29:48.742Z,85.50
2018-11-04T09:30:52.319Z,85.70
2018-11-04T09:31:55.958Z,85.20
2018-11-04T09:32:59.522Z,84.90
2018-11-04T09:34:03.106Z,85.40
2018-11-04T09:35:07.494Z,85.80
2018-11-04T09:36:11.144Z,86.10
2018-11-04T09:40:22.139Z,85.50
2018-11-04T09:41:25.723Z,84.90
2018-11-04T09:42:29.312Z,84.70
2018-11-04T09:43:32.953Z,85.70
2018-11-04T09:44:36.507Z,85.10
2018-11-04T09:45:40.094Z,85.00
2018-11-04T09:46:43.694Z,85.00
2018-11-04T09:47:47.282Z,85.20
2018-11-04T09:48:50.884Z,85.00
2018-11-04T09:49:54.519Z,84.80
2018-11-04T09:50:58.084Z,85.90
2018-11-04T09:52:01.839Z,84.60
2018-11-04T09:53:05.710Z,84.80
2018-11-04T09:54:09.291Z,85.40
2018-11-04T09:55:13.191Z,85.40
2018-11-04T09:56:16.923Z,85.20
2018-11-04T09:57:20.418Z,85.40
2018-11-04T09:58:23.994Z,85.40
2018-11-04T09:59:27.592Z,85.30
2018-11-04T10:00:31.217Z,85.60
2018-11-04T10:01:34.768Z,85.50
2018-11-04T10:02:38.543Z,85.80
2018-11-04T10:03:42.141Z,85.50
2018-11-04T10:04:45.727Z,84.50
2018-11-04T10:05:49.320Z,84.80
2018-11-04T10:06:52.922Z,84.30
2018-11-04T10:07:56.514Z,84.00
2018-11-04T10:09:00.091Z,83.40
2018-11-04T10:10:04.435Z,83.50
2018-11-04T10:11:08.032Z,83.50
2018-11-04T10:12:11.620Z,83.70
2018-11-04T10:13:15.215Z,84.00
2018-11-04T10:14:18.798Z,84.10
2018-11-04T10:15:22.392Z,84.40
2018-11-04T10:16:26.069Z,84.60
2018-11-04T10:17:29.562Z,84.60
2018-11-04T10:18:33.164Z,84.00
2018-11-04T10:19:36.885Z,84.00
2018-11-04T10:20:40.783Z,84.20
2018-11-04T10:21:43.959Z,83.30
2018-11-04T10:22:47.547Z,83.50
2018-11-04T10:23:51.123Z,83.40
2018-11-04T10:24:54.723Z,83.90
2018-11-04T10:25:58.320Z,83.70
2018-11-04T10:27:01.920Z,83.80
2018-11-04T10:28:05.815Z,83.10
2018-11-04T10:29:09.435Z,83.20
2018-11-04T10:30:14.407Z,83.20
2018-11-04T10:31:18.002Z,83.10
2018-11-04T10:32:21.558Z,83.70
2018-11-04T10:33:25.142Z,84.70
2018-11-04T10:34:28.731Z,84.00
2018-11-04T10:35:32.309Z,84.20
2018-11-04T10:36:35.898Z,83.90
2018-11-04T10:37:40.309Z,83.30
2018-11-04T10:38:43.895Z,83.60
2018-11-04T10:39:47.511Z,83.50
2018-11-04T10:40:51.120Z,83.20
2018-11-04T10:41:54.724Z,83.00
2018-11-04T10:42:58.327Z,83.00
2018-11-04T10:44:01.919Z,83.00
2018-11-04T10:45:06.555Z,81.50
2018-11-04T10:46:10.158Z,81.00
2018-11-04T10:47:13.759Z,80.60
2018-11-04T10:48:17.355Z,80.70
2018-11-04T10:49:20.984Z,80.70
2018-11-04T10:50:24.551Z,80.00
2018-11-04T10:51:28.140Z,80.40
2018-11-04T10:52:31.728Z,80.90
2018-11-04T10:53:35.506Z,81.00
2018-11-04T10:54:39.106Z,81.10
2018-11-04T10:55:42.748Z,80.20
2018-11-04T10:56:46.279Z,79.80
2018-11-04T10:57:49.867Z,80.20
2018-11-04T10:58:53.458Z,79.50
2018-11-04T10:59:57.095Z,80.20
2018-11-04T11:01:07.174Z,80.80
2018-11-04T11:02:10.766Z,81.20
2018-11-04T11:03:14.357Z,81.00
2018-11-04T11:04:18.010Z,79.90
2018-11-04T11:05:21.572Z,80.10
2018-11-04T11:06:25.154Z,80.50
2018-11-04T11:07:28.747Z,80.70
2018-11-04T11:08:32.352Z,80.50
2018-11-04T11:09:35.950Z,81.00
2018-11-04T11:10:39.572Z,81.60
2018-11-04T11:11:43.160Z,79.50
2018-11-04T11:12:46.765Z,78.20
2018-11-04T11:13:50.350Z,78.80
2018-11-04T11:14:53.959Z,78.70
2018-11-04T11:15:58.432Z,78.00
2018-11-04T11:17:02.002Z,78.50
2018-11-04T11:18:05.607Z,77.90
2018-11-04T11:19:09.228Z,77.30
2018-11-04T11:20:13.146Z,77.40
2018-11-04T11:21:16.743Z,78.00
2018-11-04T11:22:20.386Z,78.60
2018-11-04T11:23:23.931Z,77.90
2018-11-04T11:24:27.542Z,77.90
2018-11-04T11:25:31.132Z,77.10
2018-11-04T11:26:34.785Z,77.30
2018-11-04T11:27:38.583Z,76.50
2018-11-04T11:28:42.188Z,76.60
2018-11-04T11:29:45.819Z,76.80
2018-11-04T11:30:49.411Z,76.90
2018-11-04T11:31:53.002Z,77.70
2018-11-04T11:32:56.591Z,77.10
2018-11-04T11:34:00.184Z,76.90
2018-11-04T11:35:03.855Z,77.10
2018-11-04T11:36:13.974Z,77.40
2018-11-04T11:37:17.593Z,76.90
2018-11-04T11:38:21.143Z,77.00
2018-11-04T11:39:24.956Z,77.40
2018-11-04T11:40:28.551Z,77.80
2018-11-04T11:41:32.136Z,77.80
2018-11-04T11:42:35.795Z,77.90
2018-11-04T11:43:39.396Z,78.60
2018-11-04T11:44:43.251Z,77.60
2018-11-04T11:45:46.790Z,77.00
2018-11-04T11:46:50.395Z,77.00
2018-11-04T11:47:54.020Z,77.10
2018-11-04T11:48:57.606Z,77.90
2018-11-04T11:50:01.224Z,77.20
2018-11-04T11:51:05.138Z,77.20
2018-11-04T11:52:08.939Z,77.70
2018-11-04T11:53:12.592Z,78.20
2018-11-04T11:54:16.150Z,78.10
2018-11-04T11:55:19.743Z,78.30
2018-11-04T11:56:23.335Z,77.90
2018-11-04T11:57:26.920Z,76.30
2018-11-04T11:58:30.506Z,75.90
2018-11-04T11:59:34.127Z,76.50
2018-11-04T12:00:37.821Z,76.80
2018-11-04T12:01:41.411Z,76.90
2018-11-04T12:02:44.984Z,76.40
2018-11-04T12:03:48.591Z,77.00
2018-11-04T12:04:52.166Z,77.10
2018-11-04T12:05:55.764Z,77.70
2018-11-04T12:06:59.355Z,77.00
2018-11-04T12:08:02.938Z,76.50
2018-11-04T12:09:06.817Z,77.40
2018-11-04T12:10:12.122Z,77.20
2018-11-04T12:11:15.732Z,76.50
2018-11-04T12:12:19.311Z,76.60
2018-11-04T12:13:22.912Z,77.50
2018-11-04T12:14:26.544Z,76.50
2018-11-04T12:15:30.133Z,76.60
2018-11-04T12:16:33.695Z,77.30
2018-11-04T12:17:37.374Z,76.50
2018-11-04T12:18:41.135Z,76.00
2018-11-04T12:19:44.719Z,75.70
2018-11-04T12:20:48.312Z,75.70
2018-11-04T12:21:51.907Z,76.10
2018-11-04T12:22:55.574Z,76.20
2018-11-04T12:23:59.132Z,76.20
2018-11-04T12:25:02.711Z,77.30
2018-11-04T12:26:06.597Z,77.10
2018-11-04T12:27:10.178Z,77.40
2018-11-04T12:28:13.773Z,77.20
2018-11-04T12:29:17.355Z,77.60
2018-11-04T12:30:21.014Z,77.80
2018-11-04T12:31:24.580Z,77.90
2018-11-04T12:32:28.239Z,77.50
2018-11-04T12:33:31.826Z,77.80
2018-11-04T12:34:35.433Z,78.00
2018-11-04T12:35:39.019Z,77.90
2018-11-04T12:36:42.721Z,77.60
2018-11-04T12:37:46.295Z,77.50
2018-11-04T12:38:49.906Z,77.50
2018-11-04T12:39:53.480Z,77.40
2018-11-04T12:40:57.078Z,77.90
2018-11-04T12:42:00.698Z,78.10
2018-11-04T12:43:04.684Z,77.60
2018-11-04T12:44:08.270Z,77.40
2018-11-04T12:45:12.708Z,77.70
2018-11-04T12:46:16.312Z,78.30
2018-11-04T12:47:19.914Z,78.60
2018-11-04T12:48:23.506Z,78.30
2018-11-04T12:49:27.103Z,78.60
2018-11-04T12:50:30.767Z,78.50
2018-11-04T12:51:34.331Z,77.80
2018-11-04T12:52:37.919Z,77.50
2018-11-04T12:53:41.511Z,77.40
2018-11-04T12:54:45.095Z,77.50
2018-11-04T12:55:48.691Z,77.60
2018-11-04T12:56:52.412Z,77.70
2018-11-04T12:57:55.976Z,77.70
2018-11-04T12:58:59.579Z,78.60
2018-11-04T13:00:03.436Z,78.60
2018-11-04T13:01:07.043Z,78.90
2018-11-04T13:02:10.829Z,78.60
2018-11-04T13:03:14.242Z,79.10
2018-11-04T13:04:17.851Z,79.10
2018-11-04T13:05:21.447Z,79.20
2018-11-04T13:06:25.028Z,79.00
2018-11-04T13:07:28.607Z,78.30
2018-11-04T13:08:32.199Z,78.10
2018-11-04T13:09:35.783Z,78.00
2018-11-04T13:10:39.376Z,78.20
2018-11-04T13:11:42.960Z,78.60
2018-11-04T13:12:46.574Z,78.60
2018-11-04T13:13:50.123Z,78.70
2018-11-04T13:14:53.709Z,78.50
2018-11-04T13:15:57.297Z,79.00
2018-11-04T13:17:00.879Z,78.80
2018-11-04T13:18:04.471Z,79.00
2018-11-04T13:19:08.056Z,78.80
2018-11-04T13:20:11.903Z,79.10
2018-11-04T13:21:15.591Z,79.20
2018-11-04T13:22:19.092Z,79.40
2018-11-04T13:23:22.696Z,79.70
2018-11-04T13:24:26.279Z,79.90
2018-11-04T13:25:29.875Z,79.80
2018-11-04T13:26:33.627Z,80.30
2018-11-04T13:27:37.227Z,80.40
2018-11-04T13:28:40.840Z,79.90
2018-11-04T13:29:44.391Z,80.10
2018-11-04T13:30:47.971Z,79.50
2018-11-04T13:31:51.614Z,79.20
2018-11-04T13:32:55.201Z,79.30
2018-11-04T13:33:58.783Z,79.50
2018-11-04T13:35:02.487Z,79.60
2018-11-04T13:36:06.098Z,80.00
2018-11-04T13:37:09.635Z,79.90
2018-11-04T13:38:13.210Z,80.00
2018-11-04T13:39:16.795Z,79.60
2018-11-04T13:40:20.402Z,79.20
2018-11-04T13:41:23.999Z,79.10
2018-11-04T13:42:27.616Z,79.60
2018-11-04T13:43:31.186Z,79.00